Main page
METAR-TAF:

METAR-TAF

Airports :

RAF Scampton

Scampton, England

latitude: 53-18-27N, longitude: 000-33-03W, elevation: 62 m

Current weather observation

The report was made 47 minutes ago, at 02:50 UTC
Wind 5 kt from the Northwest
Temperature 7°C
Humidity 93%
Pressure 1015 hPa
Visibility: 9000 m

METAR: EGXP 230250Z AUTO 32005KT 9000 // FEW050/// BKN180/// 07/06 Q1015

Time: 04:37 (03:37 UTC)

Forecast

The report was made 16 hours and 44 minutes ago, at 10:53 UTC
Forecast valid from 22 at 12 UTC to 22 at 15 UTC
Wind 10 kt from the West/Southwest
Visibility 10 km or more
Few clouds at a height of 3000 ft

TAF: EGXP 221053Z 2212/2215 25010KT 9999 FEW030

Weather observations and forecasts of more than 4000 airports (METAR and TAF reports).

The available stations are represented by yellow and red dots on the map.

Hover mouse over dot to see the name of the station.

Then click to see weather observations and forecasts.

To change the map : click on the green buttons with a black cross to zoom in, on the green button with a dash to zoom out, or on the green arrows for adjacent maps.


METAR-TAF: